Terminal Aerodrome Forecast
Issued by NWS

Home | Current Version | Previous Version | Text Only | Print | Product List | Glossary On
Versions: 1 2 3 4 5 6 7 8 9 10 11 12 13 14 15 16
469
FTUS41 KCAR 280520
TAFPQI
TAF
KPQI 280520Z 2806/2906 17006KT P6SM OVC060
     FM280800 VRB03KT 2SM -SHRA BR OVC008
     FM281100 VRB03KT P6SM OVC020
     FM281500 25004KT 3SM -SHRA BKN040
     FM282000 26004KT P6SM VCSH BKN070
     FM282300 VRB03KT P6SM BKN090=

USA.gov is the U.S. government's official web portal to all federal, state and local government web resources and services.